Time;durP1;ratioP1;P1;durP2;ratioP2;P2;SDS_P1;SDS_P2;PMS_P1;PMS_P2;Temp;Humidity;BMP_temperature;BMP_pressure;BME280_temperature;BME280_humidity;BME280_pressure;Samples;Min_cycle;Max_cycle;Signal;HPM_P1;HPM_P2
2021/05/13 00:01:27;;;;;;;4.68;3.97;;;11.60;99.90;;;;;;5030544;28;20041;-46
2021/05/13 00:03:54;;;;;;;7.63;4.70;;;11.60;99.90;;;;;;5030315;28;20033;-46
2021/05/13 00:06:20;;;;;;;6.40;4.72;;;11.60;99.90;;;;;;5030602;28;20021;-44
2021/05/13 00:08:54;;;;;;;9.60;5.63;;;11.60;99.90;;;;;;5029919;28;20036;-44
2021/05/13 00:11:24;;;;;;;8.75;5.53;;;11.70;99.90;;;;;;5030472;28;20112;-45
2021/05/13 00:13:49;;;;;;;12.93;5.05;;;11.60;99.90;;;;;;5029034;28;20063;-44
2021/05/13 00:16:15;;;;;;;9.98;5.60;;;11.60;99.90;;;;;;5030922;28;20033;-44
2021/05/13 00:18:40;;;;;;;7.70;5.28;;;11.60;99.90;;;;;;5029203;28;20483;-45
2021/05/13 00:21:06;;;;;;;9.93;6.00;;;11.60;99.90;;;;;;5029971;28;20037;-45
2021/05/13 00:23:31;;;;;;;9.50;6.40;;;11.60;99.90;;;;;;5030381;28;20288;-45
2021/05/13 00:25:57;;;;;;;10.75;5.65;;;11.70;99.90;;;;;;5029884;28;20554;-44
2021/05/13 00:28:23;;;;;;;8.35;6.38;;;11.60;99.90;;;;;;5029113;28;20025;-45
2021/05/13 00:30:49;;;;;;;8.25;6.07;;;11.60;99.90;;;;;;5029793;28;20360;-44
2021/05/13 00:33:14;;;;;;;13.35;6.80;;;11.60;99.90;;;;;;5029683;28;20029;-44
2021/05/13 00:35:40;;;;;;;10.07;6.30;;;11.60;99.90;;;;;;5028540;28;20029;-45
2021/05/13 00:38:06;;;;;;;6.88;5.90;;;11.50;99.90;;;;;;5028228;28;20368;-44
2021/05/13 00:40:33;;;;;;;8.52;6.63;;;11.50;99.90;;;;;;5030137;28;20041;-44
2021/05/13 00:42:59;;;;;;;9.77;6.90;;;11.60;99.90;;;;;;5029643;28;20029;-44
2021/05/13 00:45:24;;;;;;;7.93;6.00;;;11.50;99.90;;;;;;5029228;28;20025;-44
2021/05/13 00:50:18;;;;;;;11.40;8.18;;;11.50;99.90;;;;;;5029556;28;20052;-46
2021/05/13 00:52:45;;;;;;;9.73;7.70;;;11.50;99.90;;;;;;5029440;28;20140;-44
2021/05/13 00:55:13;;;;;;;12.85;6.90;;;11.50;99.90;;;;;;5029967;28;20436;-45
2021/05/13 00:57:42;;;;;;;12.93;7.75;;;11.50;99.90;;;;;;5028859;28;20029;-44
2021/05/13 01:00:29;;;;;;;11.10;8.38;;;11.50;99.90;;;;;;5028614;28;20053;-45
2021/05/13 01:02:53;;;;;;;10.82;7.20;;;11.50;99.90;;;;;;5028943;28;20120;-45
2021/05/13 01:05:19;;;;;;;10.70;7.57;;;11.50;99.90;;;;;;5029556;28;20132;-45
2021/05/13 01:07:44;;;;;;;11.32;7.90;;;11.50;99.90;;;;;;5028611;28;20014;-44
2021/05/13 01:10:10;;;;;;;8.98;7.20;;;11.50;99.90;;;;;;5027654;28;20111;-45
2021/05/13 01:12:39;;;;;;;8.63;6.93;;;11.40;99.90;;;;;;5029278;28;20036;-46
2021/05/13 01:15:22;;;;;;;11.30;7.05;;;11.40;99.90;;;;;;5027702;28;20112;-45
2021/05/13 01:18:02;;;;;;;9.52;7.55;;;11.40;99.90;;;;;;5028748;28;20025;-44
2021/05/13 01:20:28;;;;;;;9.97;7.23;;;11.40;99.90;;;;;;5029364;28;20021;-44
2021/05/13 01:22:56;;;;;;;9.93;7.13;;;11.40;99.90;;;;;;5029779;28;20726;-44
2021/05/13 01:25:22;;;;;;;10.57;7.18;;;11.40;99.90;;;;;;5028027;28;20055;-44
2021/05/13 01:27:48;;;;;;;9.13;6.70;;;11.40;99.90;;;;;;5027230;28;20026;-48
2021/05/13 01:30:16;;;;;;;8.70;7.13;;;11.40;99.90;;;;;;5028306;28;20026;-43
2021/05/13 01:32:42;;;;;;;11.35;7.75;;;11.30;99.90;;;;;;5028530;28;20037;-44
2021/05/13 01:35:08;;;;;;;10.57;7.68;;;11.30;99.90;;;;;;5028099;28;20039;-44
2021/05/13 01:37:33;;;;;;;9.18;7.05;;;11.30;99.90;;;;;;5027844;28;20030;-45
2021/05/13 01:39:59;;;;;;;10.70;7.05;;;11.30;99.90;;;;;;5028689;28;20037;-44
2021/05/13 01:42:24;;;;;;;9.13;6.43;;;11.30;99.90;;;;;;5028532;28;20064;-45
2021/05/13 01:44:50;;;;;;;7.85;7.00;;;11.30;99.90;;;;;;5028263;28;20029;-44
2021/05/13 01:47:15;;;;;;;9.73;6.68;;;11.30;99.90;;;;;;5028554;28;20536;-44
2021/05/13 01:49:41;;;;;;;9.23;6.13;;;11.30;99.90;;;;;;5027769;28;20328;-44
2021/05/13 01:52:06;;;;;;;8.80;6.65;;;11.20;99.90;;;;;;5028402;28;20018;-44
2021/05/13 01:54:32;;;;;;;8.70;6.50;;;11.20;99.90;;;;;;5028289;28;20022;-44
2021/05/13 01:57:05;;;;;;;10.43;6.85;;;11.20;99.90;;;;;;5028359;28;20021;-44
2021/05/13 01:59:31;;;;;;;10.15;6.10;;;11.20;99.90;;;;;;5027519;28;20045;-44
2021/05/13 02:01:58;;;;;;;8.70;6.35;;;11.20;99.90;;;;;;5028001;28;20557;-44
2021/05/13 02:04:24;;;;;;;7.75;5.75;;;11.10;99.90;;;;;;5027078;28;20244;-45
2021/05/13 02:06:49;;;;;;;7.75;5.55;;;11.10;99.90;;;;;;5028186;28;20103;-44
2021/05/13 02:09:15;;;;;;;9.30;6.28;;;11.20;99.90;;;;;;5027540;28;20029;-44
2021/05/13 02:11:40;;;;;;;7.57;5.75;;;11.20;99.90;;;;;;5027898;28;20025;-45
2021/05/13 02:14:06;;;;;;;8.23;5.75;;;11.10;99.90;;;;;;5027764;28;20077;-44
2021/05/13 02:16:31;;;;;;;7.32;5.18;;;11.20;99.90;;;;;;5028004;28;20507;-44
2021/05/13 02:18:57;;;;;;;7.80;5.63;;;11.10;99.90;;;;;;5027095;28;20377;-44
2021/05/13 02:21:22;;;;;;;9.23;5.88;;;11.10;99.90;;;;;;5027877;28;20041;-44
2021/05/13 02:23:48;;;;;;;6.38;5.30;;;11.10;99.90;;;;;;5027735;28;20083;-44
2021/05/13 02:26:14;;;;;;;5.57;4.93;;;11.00;99.90;;;;;;5027752;28;20052;-44
2021/05/13 02:28:39;;;;;;;6.80;4.38;;;11.10;99.90;;;;;;5026906;28;20483;-44
2021/05/13 02:31:05;;;;;;;7.45;5.63;;;11.10;99.90;;;;;;5027827;28;20033;-47
2021/05/13 02:33:30;;;;;;;7.00;4.85;;;11.10;99.90;;;;;;5028324;28;20082;-45
2021/05/13 02:35:56;;;;;;;5.88;5.13;;;11.10;99.90;;;;;;5028014;28;20036;-51
2021/05/13 02:38:21;;;;;;;6.38;5.22;;;11.00;99.90;;;;;;5026889;28;20026;-45
2021/05/13 02:40:47;;;;;;;6.13;4.55;;;11.00;99.90;;;;;;5027989;28;20092;-45
2021/05/13 02:43:12;;;;;;;7.45;4.85;;;11.00;99.90;;;;;;5027543;28;20033;-45
2021/05/13 02:45:39;;;;;;;5.40;4.43;;;11.00;99.90;;;;;;5027485;28;20068;-45
2021/05/13 02:48:05;;;;;;;5.70;4.95;;;11.00;99.90;;;;;;5026980;28;20025;-45
2021/05/13 02:50:30;;;;;;;10.05;5.18;;;11.00;99.90;;;;;;5027868;28;20075;-45
2021/05/13 02:52:56;;;;;;;8.70;5.15;;;11.00;99.90;;;;;;5027481;28;20037;-45
2021/05/13 02:55:23;;;;;;;9.73;5.10;;;11.00;99.90;;;;;;5026926;28;20033;-44
2021/05/13 02:57:49;;;;;;;6.93;5.25;;;11.00;99.90;;;;;;5026145;28;20071;-44
2021/05/13 03:00:25;;;;;;;8.60;5.15;;;11.00;99.90;;;;;;5027792;28;20518;-45
2021/05/13 03:02:52;;;;;;;6.25;4.65;;;11.00;99.90;;;;;;5033004;28;20021;-44
2021/05/13 03:05:18;;;;;;;5.93;4.50;;;10.90;99.90;;;;;;5033994;28;20025;-44
2021/05/13 03:07:49;;;;;;;7.05;5.13;;;10.90;99.90;;;;;;5032396;28;20021;-45
2021/05/13 03:10:24;;;;;;;;;;;10.90;99.90;;;;;;5033540;28;20018;-44
2021/05/13 03:12:52;;;;;;;8.00;5.82;;;10.90;99.90;;;;;;5031239;28;20234;-45
2021/05/13 03:15:19;;;;;;;7.78;5.72;;;10.90;99.90;;;;;;5032885;28;20029;-45
2021/05/13 03:17:45;;;;;;;6.07;5.28;;;10.90;99.90;;;;;;5031518;28;20487;-46
2021/05/13 03:20:14;;;;;;;9.02;5.78;;;10.80;99.90;;;;;;5033883;28;20045;-45
2021/05/13 03:22:39;;;;;;;9.00;5.32;;;10.80;99.90;;;;;;5033957;28;20410;-44
2021/05/13 03:25:07;;;;;;;8.10;5.47;;;10.80;99.90;;;;;;5033755;28;20086;-45
2021/05/13 03:27:51;;;;;;;8.68;5.13;;;10.80;99.90;;;;;;5033336;28;20056;-44
2021/05/13 03:30:19;;;;;;;7.60;5.35;;;10.80;99.90;;;;;;5019669;28;20014;-44
2021/05/13 03:32:45;;;;;;;7.85;5.80;;;10.80;99.90;;;;;;5033119;28;20040;-45
2021/05/13 03:35:12;;;;;;;8.30;6.45;;;10.80;99.90;;;;;;5033686;28;20025;-44
2021/05/13 03:37:38;;;;;;;10.10;6.20;;;10.70;99.90;;;;;;5032638;28;20029;-45
2021/05/13 03:40:04;;;;;;;8.13;6.65;;;10.80;99.90;;;;;;5033126;28;20556;-45
2021/05/13 03:42:30;;;;;;;8.68;5.90;;;10.70;99.90;;;;;;5033138;28;20032;-44
2021/05/13 03:44:56;;;;;;;7.45;6.10;;;10.70;99.90;;;;;;5033325;28;20026;-44
2021/05/13 03:47:22;;;;;;;7.90;6.28;;;10.70;99.90;;;;;;5032610;28;20524;-44
2021/05/13 03:49:47;;;;;;;8.00;6.30;;;10.70;99.90;;;;;;5032848;28;20099;-45
2021/05/13 03:52:14;;;;;;;8.68;6.18;;;10.70;99.90;;;;;;5031834;28;20499;-45
2021/05/13 03:54:39;;;;;;;8.85;6.75;;;10.70;99.90;;;;;;5033254;28;20036;-45
2021/05/13 03:57:06;;;;;;;7.47;6.15;;;10.80;99.90;;;;;;5033116;28;20321;-45
2021/05/13 03:59:37;;;;;;;11.68;7.38;;;10.70;99.90;;;;;;5031864;28;20025;-46
2021/05/13 04:02:08;;;;;;;8.88;6.85;;;10.70;99.90;;;;;;5033653;28;20423;-45
2021/05/13 04:04:35;;;;;;;8.90;7.28;;;10.80;99.90;;;;;;5033671;28;20052;-45
2021/05/13 04:07:00;;;;;;;9.65;7.22;;;10.80;99.90;;;;;;5033451;28;20108;-44
2021/05/13 04:09:26;;;;;;;15.23;7.00;;;10.70;99.90;;;;;;5032741;28;20109;-44
2021/05/13 04:11:53;;;;;;;12.95;7.50;;;10.80;99.90;;;;;;5032527;28;20139;-44
2021/05/13 04:14:20;;;;;;;8.98;6.20;;;10.80;99.90;;;;;;5029903;28;20029;-45
2021/05/13 04:16:51;;;;;;;9.95;7.53;;;10.90;99.90;;;;;;5030127;28;20075;-45
2021/05/13 04:19:17;;;;;;;12.27;7.03;;;10.90;99.90;;;;;;5029241;28;20026;-43
2021/05/13 04:21:42;;;;;;;13.98;6.97;;;10.90;99.90;;;;;;5028409;28;20499;-44
2021/05/13 04:24:08;;;;;;;12.43;7.30;;;11.00;99.90;;;;;;5030124;28;20471;-44
2021/05/13 04:26:34;;;;;;;11.00;7.88;;;11.10;99.90;;;;;;5029803;28;20021;-46
2021/05/13 04:29:00;;;;;;;8.95;6.75;;;11.10;99.90;;;;;;5027306;28;20022;-45
2021/05/13 04:31:25;;;;;;;8.45;6.55;;;11.10;99.90;;;;;;5030080;28;20096;-45
2021/05/13 04:33:51;;;;;;;10.75;7.85;;;11.20;99.90;;;;;;5029930;28;20036;-45
2021/05/13 04:36:17;;;;;;;11.38;7.57;;;11.20;99.90;;;;;;5029620;28;20614;-45
2021/05/13 04:38:43;;;;;;;11.13;7.30;;;11.30;99.90;;;;;;5029363;28;20076;-44
2021/05/13 04:41:09;;;;;;;10.45;7.38;;;11.30;99.90;;;;;;5029975;28;20030;-45
2021/05/13 04:43:37;;;;;;;12.63;7.13;;;11.30;99.90;;;;;;5029740;28;20029;-45
2021/05/13 04:46:04;;;;;;;11.10;7.32;;;11.20;99.90;;;;;;5029801;28;20022;-44
2021/05/13 04:48:52;;;;;;;10.15;8.43;;;11.20;99.90;;;;;;5028527;28;20049;-43
2021/05/13 04:51:20;;;;;;;10.10;6.82;;;11.20;99.90;;;;;;5028435;28;20494;-45
2021/05/13 04:53:49;;;;;;;12.20;8.45;;;11.20;99.90;;;;;;5029539;28;20029;-45
2021/05/13 04:56:16;;;;;;;13.55;7.28;;;11.20;99.90;;;;;;5029446;28;20029;-45
2021/05/13 04:58:42;;;;;;;11.43;7.78;;;11.20;99.90;;;;;;5028588;28;20051;-45
2021/05/13 05:01:07;;;;;;;13.57;8.60;;;11.20;99.90;;;;;;5029484;28;20033;-44
2021/05/13 05:03:33;;;;;;;13.38;8.35;;;11.20;99.90;;;;;;5029552;28;20036;-44
2021/05/13 05:05:58;;;;;;;9.90;6.97;;;11.20;99.90;;;;;;5029601;28;20029;-44
2021/05/13 05:08:24;;;;;;;10.68;7.78;;;11.20;99.90;;;;;;5027433;28;20041;-45
2021/05/13 05:10:49;;;;;;;11.07;7.38;;;11.20;99.90;;;;;;5028963;28;20075;-45
2021/05/13 05:13:15;;;;;;;16.23;8.57;;;11.20;99.90;;;;;;5026072;28;20483;-43
2021/05/13 05:15:40;;;;;;;11.32;8.00;;;11.20;99.90;;;;;;5028753;28;20064;-45
2021/05/13 05:18:06;;;;;;;11.63;8.30;;;11.20;99.90;;;;;;5028563;28;20423;-45
2021/05/13 05:20:31;;;;;;;12.55;7.85;;;11.20;99.90;;;;;;5028771;28;20153;-45
2021/05/13 05:22:57;;;;;;;9.65;7.80;;;11.30;99.90;;;;;;5028698;28;20045;-45
2021/05/13 05:25:22;;;;;;;10.82;7.18;;;11.30;99.90;;;;;;5028909;28;20083;-45
2021/05/13 05:27:48;;;;;;;9.90;6.85;;;11.30;99.90;;;;;;5028523;28;20097;-44
2021/05/13 05:30:14;;;;;;;11.75;6.80;;;11.40;99.90;;;;;;5014753;28;20034;-45
2021/05/13 05:32:40;;;;;;;11.48;7.50;;;11.40;99.90;;;;;;5008946;28;20037;-45
2021/05/13 05:35:06;;;;;;;15.60;7.18;;;11.40;99.90;;;;;;5012526;28;20029;-45
2021/05/13 05:37:32;;;;;;;12.60;7.30;;;11.40;99.90;;;;;;5026804;28;20037;-45
2021/05/13 05:39:57;;;;;;;12.52;7.10;;;11.50;99.90;;;;;;5028235;28;20049;-45
2021/05/13 05:42:23;;;;;;;9.88;6.90;;;11.50;99.90;;;;;;5027990;28;20362;-46
2021/05/13 05:44:48;;;;;;;15.27;7.57;;;11.50;99.90;;;;;;5028517;28;20029;-45
2021/05/13 05:47:17;;;;;;;9.13;6.53;;;11.60;99.90;;;;;;5027799;28;20026;-47
2021/05/13 05:49:43;;;;;;;10.52;7.32;;;11.60;99.90;;;;;;5028039;28;20073;-44
2021/05/13 05:52:09;;;;;;;13.65;8.13;;;11.60;99.90;;;;;;5028902;28;20021;-45
2021/05/13 05:54:34;;;;;;;11.57;7.82;;;11.70;99.90;;;;;;5027925;28;20025;-45
2021/05/13 05:57:00;;;;;;;10.82;8.95;;;11.70;99.90;;;;;;5027818;28;20021;-44
2021/05/13 05:59:26;;;;;;;16.33;7.97;;;11.70;99.90;;;;;;5025901;28;20042;-45
2021/05/13 06:01:52;;;;;;;14.88;7.70;;;11.70;99.90;;;;;;5028354;28;20029;-48
2021/05/13 06:04:17;;;;;;;13.85;7.85;;;11.70;99.90;;;;;;5028288;28;20029;-45
2021/05/13 06:06:43;;;;;;;17.17;8.05;;;11.80;99.90;;;;;;5028440;28;20234;-45
2021/05/13 06:09:09;;;;;;;10.48;7.70;;;11.70;99.90;;;;;;5027152;28;20038;-45
2021/05/13 06:11:35;;;;;;;15.23;8.10;;;11.80;99.90;;;;;;5028542;28;20136;-45
2021/05/13 06:14:02;;;;;;;15.45;8.63;;;11.90;99.90;;;;;;5027596;28;20112;-44
2021/05/13 06:16:28;;;;;;;15.52;7.53;;;12.00;99.90;;;;;;5027395;28;20087;-45
2021/05/13 06:18:56;;;;;;;13.52;7.95;;;12.20;99.90;;;;;;5027021;28;20109;-45
2021/05/13 06:21:23;;;;;;;17.67;7.80;;;12.20;99.90;;;;;;5027751;28;20376;-45
2021/05/13 06:23:51;;;;;;;18.20;7.90;;;12.30;99.90;;;;;;5026596;28;20312;-45
2021/05/13 06:26:24;;;;;;;13.23;8.75;;;12.50;99.90;;;;;;5027847;28;20037;-44
2021/05/13 06:28:50;;;;;;;15.00;7.88;;;12.60;99.90;;;;;;5024452;28;20026;-44
2021/05/13 06:31:16;;;;;;;18.08;8.35;;;12.70;99.90;;;;;;5007545;28;20045;-44
2021/05/13 06:33:42;;;;;;;10.73;6.35;;;12.80;99.90;;;;;;5013049;28;20306;-44
2021/05/13 06:36:08;;;;;;;15.07;7.55;;;12.90;99.90;;;;;;5028244;28;20025;-44
2021/05/13 06:38:33;;;;;;;14.38;7.72;;;12.90;99.90;;;;;;5026528;28;20104;-46
2021/05/13 06:40:59;;;;;;;11.63;7.07;;;13.10;99.90;;;;;;5026371;28;20499;-43
2021/05/13 06:43:24;;;;;;;11.05;6.18;;;13.20;99.90;;;;;;5026275;28;20487;-45
2021/05/13 06:45:50;;;;;;;13.50;7.00;;;13.30;99.90;;;;;;5025039;28;20041;-45
2021/05/13 06:48:16;;;;;;;14.27;6.35;;;13.40;99.90;;;;;;5025054;28;20024;-44
2021/05/13 06:50:41;;;;;;;12.95;6.28;;;13.50;99.90;;;;;;5027023;28;20100;-45
2021/05/13 06:53:07;;;;;;;11.90;5.90;;;13.60;99.90;;;;;;5026946;28;20018;-44
2021/05/13 06:55:33;;;;;;;16.10;6.35;;;13.60;99.90;;;;;;5026795;28;20075;-44
2021/05/13 06:57:59;;;;;;;14.45;6.07;;;13.70;99.90;;;;;;5025777;28;20039;-45
2021/05/13 07:00:25;;;;;;;12.35;6.13;;;13.90;99.90;;;;;;5024655;28;20037;-43
2021/05/13 07:02:51;;;;;;;11.10;6.10;;;14.00;99.90;;;;;;5027526;28;20072;-43
2021/05/13 07:05:16;;;;;;;14.38;7.32;;;14.20;99.90;;;;;;5027864;28;20021;-44
2021/05/13 07:07:42;;;;;;;10.35;6.45;;;14.10;99.90;;;;;;5026483;28;20025;-44
2021/05/13 07:10:09;;;;;;;13.10;6.80;;;14.10;99.90;;;;;;5027289;28;20045;-44
2021/05/13 07:12:34;;;;;;;8.82;6.50;;;14.00;99.90;;;;;;5027134;28;20038;-43
2021/05/13 07:15:02;;;;;;;14.32;6.10;;;13.90;99.90;;;;;;5026993;28;20037;-44
2021/05/13 07:17:27;;;;;;;14.82;6.60;;;14.00;99.90;;;;;;5024414;28;20080;-44
2021/05/13 07:19:53;;;;;;;13.43;5.40;;;14.10;99.90;;;;;;5026394;28;20025;-45
2021/05/13 07:22:19;;;;;;;11.20;5.88;;;14.00;99.90;;;;;;5017786;28;20104;-44
2021/05/13 07:24:45;;;;;;;10.23;4.97;;;14.10;99.90;;;;;;5019939;28;20442;-45
2021/05/13 07:27:10;;;;;;;11.15;5.60;;;14.20;99.90;;;;;;5024748;28;20029;-45
2021/05/13 07:29:37;;;;;;;12.60;5.63;;;14.40;99.90;;;;;;5024547;28;20280;-48
2021/05/13 07:32:03;;;;;;;9.95;5.18;;;14.20;99.90;;;;;;5025142;28;20084;-45
2021/05/13 07:34:28;;;;;;;14.10;5.75;;;14.00;99.90;;;;;;5025847;28;20026;-44
2021/05/13 07:36:54;;;;;;;13.07;5.15;;;14.10;99.90;;;;;;5024691;28;20064;-44
2021/05/13 07:39:20;;;;;;;10.05;4.70;;;14.10;99.90;;;;;;5025772;28;20026;-44
2021/05/13 07:41:46;;;;;;;10.18;4.53;;;14.20;99.90;;;;;;5026938;28;20080;-44
2021/05/13 07:44:11;;;;;;;8.75;3.65;;;14.40;99.90;;;;;;5026068;28;20025;-45
2021/05/13 07:46:39;;;;;;;10.55;4.45;;;14.60;99.90;;;;;;5027513;28;20476;-44
2021/05/13 07:49:07;;;;;;;8.25;4.15;;;14.80;99.90;;;;;;5029659;28;20017;-45
2021/05/13 07:51:33;;;;;;;8.32;4.35;;;14.90;99.90;;;;;;5029401;28;20109;-44
2021/05/13 07:53:58;;;;;;;9.23;4.00;;;15.00;99.90;;;;;;5029595;28;20120;-44
2021/05/13 07:56:24;;;;;;;12.15;4.95;;;15.10;99.90;;;;;;5030554;28;20030;-44
2021/05/13 07:58:49;;;;;;;8.95;4.15;;;15.20;99.90;;;;;;5028987;28;20044;-46
2021/05/13 08:01:16;;;;;;;12.52;4.70;;;15.10;99.90;;;;;;5030002;28;20495;-45
2021/05/13 08:03:41;;;;;;;8.02;3.60;;;15.40;99.90;;;;;;5029885;28;20297;-44
2021/05/13 08:06:07;;;;;;;9.75;4.75;;;15.40;99.90;;;;;;5030241;28;20052;-45
2021/05/13 08:08:33;;;;;;;5.45;3.22;;;15.80;99.90;;;;;;5029544;28;20018;-45
2021/05/13 08:10:58;;;;;;;9.32;4.15;;;15.80;99.90;;;;;;5029578;28;20120;-45
2021/05/13 08:13:24;;;;;;;9.82;4.80;;;16.10;99.90;;;;;;5029088;28;20080;-45
2021/05/13 08:15:49;;;;;;;12.35;4.32;;;15.90;99.90;;;;;;5029979;28;20235;-44
2021/05/13 08:18:15;;;;;;;12.32;4.70;;;16.00;99.90;;;;;;5029185;28;20041;-44
2021/05/13 08:20:40;;;;;;;11.10;4.20;;;16.20;99.90;;;;;;5029783;28;20037;-44
2021/05/13 08:23:07;;;;;;;10.85;3.55;;;16.10;99.90;;;;;;5029499;28;20223;-45
2021/05/13 08:25:33;;;;;;;12.43;4.05;;;16.60;99.90;;;;;;5029719;28;20029;-45
2021/05/13 08:27:58;;;;;;;10.38;3.55;;;16.80;99.90;;;;;;5028749;28;20226;-45
2021/05/13 08:30:24;;;;;;;6.70;3.40;;;16.90;99.90;;;;;;5029354;28;20430;-45
2021/05/13 08:32:49;;;;;;;10.55;3.72;;;16.90;99.90;;;;;;5029094;28;20037;-45
2021/05/13 08:35:16;;;;;;;6.68;3.50;;;16.90;99.90;;;;;;5029380;28;20026;-45
2021/05/13 08:37:42;;;;;;;7.85;3.50;;;17.00;99.90;;;;;;5028895;28;20037;-46
2021/05/13 08:40:08;;;;;;;11.07;3.38;;;17.00;99.90;;;;;;5028614;28;20072;-46
2021/05/13 08:42:34;;;;;;;9.38;3.50;;;16.90;99.90;;;;;;5029679;28;20030;-45
2021/05/13 08:45:00;;;;;;;8.68;3.42;;;16.90;99.90;;;;;;5029331;28;20035;-47
2021/05/13 08:47:26;;;;;;;9.45;3.22;;;16.80;99.90;;;;;;5028512;28;20155;-46
2021/05/13 08:49:52;;;;;;;10.25;3.38;;;16.70;99.90;;;;;;5029071;28;20108;-44
2021/05/13 08:52:19;;;;;;;7.47;3.42;;;16.50;99.90;;;;;;5028899;28;20021;-45
2021/05/13 08:54:58;;;;;;;9.40;4.22;;;16.40;99.90;;;;;;5029278;28;20044;-45
2021/05/13 08:57:25;;;;;;;7.43;2.55;;;16.30;99.90;;;;;;5029163;28;20356;-45
2021/05/13 08:59:51;;;;;;;7.13;3.95;;;16.30;99.90;;;;;;5028004;28;20023;-44
2021/05/13 09:02:18;;;;;;;5.68;2.92;;;16.10;99.90;;;;;;5028231;28;20116;-44
2021/05/13 09:04:51;;;;;;;8.23;3.80;;;16.10;99.90;;;;;;5029226;28;20203;-48
2021/05/13 09:07:24;;;;;;;4.82;2.67;;;16.10;99.90;;;;;;5028522;28;20032;-46
2021/05/13 09:09:56;;;;;;;9.95;3.38;;;16.00;99.90;;;;;;5026798;28;20025;-46
2021/05/13 09:12:24;;;;;;;8.82;3.20;;;16.00;99.90;;;;;;5029256;28;20489;-45
2021/05/13 09:15:06;;;;;;;8.07;3.53;;;16.10;99.90;;;;;;5028142;28;20033;-45
2021/05/13 09:17:33;;;;;;;10.05;4.03;;;16.50;99.90;;;;;;5008630;28;20534;-46
2021/05/13 09:20:00;;;;;;;8.35;3.65;;;16.60;99.90;;;;;;5008414;28;20026;-45
2021/05/13 09:22:27;;;;;;;10.65;4.53;;;16.80;99.90;;;;;;5008436;28;20029;-45
2021/05/13 09:24:57;;;;;;;9.45;4.40;;;17.10;99.90;;;;;;5008364;28;20018;-45
2021/05/13 09:27:28;;;;;;;10.35;4.03;;;17.20;99.90;;;;;;5024620;28;20059;-46
2021/05/13 09:30:19;;;;;;;7.93;4.45;;;17.20;99.90;;;;;;5027969;28;20026;-46
2021/05/13 09:32:48;;;;;;;12.25;4.00;;;17.20;99.90;;;;;;5027159;28;20065;-45
2021/05/13 09:35:22;;;;;;;10.23;4.93;;;17.30;99.90;;;;;;5028529;28;20113;-45
2021/05/13 09:38:09;;;;;;;7.70;3.60;;;17.50;99.90;;;;;;5026652;28;20029;-44
2021/05/13 09:40:42;;;;;;;6.63;3.10;;;17.40;99.90;;;;;;5028327;28;20113;-46
2021/05/13 09:43:19;;;;;;;12.27;4.05;;;17.50;99.90;;;;;;5026111;28;20072;-46
2021/05/13 09:45:45;;;;;;;9.43;4.07;;;17.70;99.90;;;;;;5028311;28;20108;-46
2021/05/13 09:48:11;;;;;;;10.48;4.22;;;17.30;99.90;;;;;;5024944;28;20506;-46
2021/05/13 09:50:36;;;;;;;9.18;3.63;;;17.10;99.90;;;;;;5027947;28;20018;-45
2021/05/13 09:53:03;;;;;;;8.50;3.83;;;17.20;99.90;;;;;;5027023;28;20157;-48
2021/05/13 09:55:33;;;;;;;15.23;3.75;;;17.40;99.90;;;;;;5027835;28;20372;-46
2021/05/13 09:58:07;;;;;;;9.70;4.27;;;17.40;99.90;;;;;;5026285;28;20445;-47
2021/05/13 10:00:39;;;;;;;9.65;3.40;;;17.10;99.90;;;;;;5027178;28;20033;-46
2021/05/13 10:03:14;;;;;;;10.35;3.95;;;17.40;99.90;;;;;;5027425;28;20478;-46
2021/05/13 10:05:42;;;;;;;10.18;3.72;;;17.20;99.90;;;;;;5027916;28;20026;-46
2021/05/13 10:08:08;;;;;;;9.88;4.07;;;17.30;99.90;;;;;;5026767;28;20040;-46
2021/05/13 10:10:34;;;;;;;11.60;4.70;;;17.20;99.90;;;;;;5027759;28;20030;-47
2021/05/13 10:12:59;;;;;;;8.73;4.18;;;17.10;99.90;;;;;;5026333;28;20033;-44
2021/05/13 10:15:26;;;;;;;7.15;3.15;;;17.10;99.90;;;;;;5028260;28;20052;-46
2021/05/13 10:17:56;;;;;;;7.85;3.47;;;17.00;99.90;;;;;;5026173;28;20021;-45
2021/05/13 10:20:24;;;;;;;8.05;3.15;;;17.20;99.90;;;;;;5027778;28;20035;-46
2021/05/13 10:22:50;;;;;;;7.78;3.13;;;17.30;99.90;;;;;;5026467;28;20083;-45
2021/05/13 10:25:29;;;;;;;8.52;3.35;;;17.50;99.90;;;;;;5027275;28;20479;-45
2021/05/13 10:27:58;;;;;;;5.85;3.00;;;17.70;99.90;;;;;;5025997;28;20471;-45
2021/05/13 10:30:26;;;;;;;5.93;2.85;;;17.40;99.90;;;;;;5025281;28;20021;-46
2021/05/13 10:33:12;;;;;;;6.03;3.22;;;17.50;99.90;;;;;;5026762;28;20025;-44
2021/05/13 10:35:39;;;;;;;8.10;3.50;;;17.60;99.90;;;;;;5027521;28;20103;-46
2021/05/13 10:38:11;;;;;;;7.63;3.10;;;17.60;99.90;;;;;;5024713;28;20396;-45
2021/05/13 10:40:48;;;;;;;9.32;3.13;;;17.40;99.90;;;;;;5026619;28;20041;-45
2021/05/13 10:43:13;;;;;;;8.32;3.20;;;17.20;99.90;;;;;;5027152;28;20314;-47
2021/05/13 10:45:42;;;;;;;9.55;3.50;;;17.10;99.90;;;;;;5026921;28;20433;-45
2021/05/13 10:48:12;;;;;;;7.47;3.20;;;17.00;99.90;;;;;;5025836;28;20661;-45
2021/05/13 10:50:42;;;;;;;8.68;3.65;;;16.80;99.90;;;;;;5027148;28;20033;-47
2021/05/13 10:53:35;;;;;;;6.93;3.50;;;16.90;99.90;;;;;;5026265;28;20025;-45
2021/05/13 10:56:32;;;;;;;7.25;3.17;;;17.10;99.90;;;;;;5025637;28;20175;-47
2021/05/13 10:59:08;;;;;;;8.02;3.47;;;17.00;99.90;;;;;;5006004;28;20487;-46
2021/05/13 11:01:42;;;;;;;10.85;4.28;;;16.90;99.90;;;;;;5006478;28;20383;-47
2021/05/13 11:04:20;;;;;;;6.40;3.20;;;16.80;99.90;;;;;;5026619;28;20040;-45
2021/05/13 11:06:46;;;;;;;6.15;3.47;;;16.90;99.90;;;;;;5026004;28;20022;-45
2021/05/13 11:09:37;;;;;;;7.28;3.70;;;17.10;99.90;;;;;;5025080;28;20083;-45
2021/05/13 11:12:09;;;;;;;6.45;3.00;;;17.30;99.90;;;;;;5023535;28;20033;-46
2021/05/13 11:20:28;;;;;;;9.43;3.20;;;17.70;99.90;;;;;;5025858;28;20120;-44
2021/05/13 11:22:56;;;;;;;9.15;3.08;;;17.70;99.90;;;;;;5029443;28;20207;-46
2021/05/13 11:25:33;;;;;;;6.13;3.08;;;17.70;99.90;;;;;;5029683;28;20029;-46
2021/05/13 11:27:59;;;;;;;11.48;4.15;;;17.40;99.90;;;;;;5024324;28;20413;-46
2021/05/13 11:30:27;;;;;;;7.15;3.35;;;17.20;99.90;;;;;;5030840;28;20017;-45
2021/05/13 11:32:53;;;;;;;5.80;3.28;;;17.10;99.90;;;;;;5030221;28;20048;-45
2021/05/13 11:35:21;;;;;;;5.93;3.22;;;17.00;99.90;;;;;;5030403;28;20511;-45
2021/05/13 11:37:51;;;;;;;8.15;3.83;;;17.00;99.90;;;;;;5029658;28;20049;-44
2021/05/13 11:40:29;;;;;;;14.52;3.60;;;17.10;99.90;;;;;;5029129;28;20379;-45
2021/05/13 11:43:14;;;;;;;7.05;3.85;;;17.20;99.90;;;;;;5029335;28;20030;-46
2021/05/13 11:45:40;;;;;;;7.10;3.78;;;17.50;99.90;;;;;;5030166;28;20475;-45
2021/05/13 11:48:19;;;;;;;9.20;3.00;;;17.50;99.90;;;;;;5027831;28;20041;-44
2021/05/13 11:50:45;;;;;;;6.72;4.30;;;17.20;99.90;;;;;;5027922;28;20022;-46
2021/05/13 11:53:14;;;;;;;7.88;4.13;;;17.10;99.90;;;;;;5028537;28;20029;-46
2021/05/13 11:55:40;;;;;;;8.05;3.80;;;16.90;99.90;;;;;;5029044;28;20511;-45
2021/05/13 11:58:10;;;;;;;7.80;4.03;;;17.10;99.90;;;;;;5027276;28;20036;-45
2021/05/13 12:00:36;;;;;;;6.22;4.10;;;17.00;99.90;;;;;;5029067;28;20021;-45
2021/05/13 12:03:16;;;;;;;7.80;4.03;;;17.00;99.90;;;;;;5028614;28;20079;-45
2021/05/13 12:05:49;;;;;;;9.35;3.38;;;16.90;99.90;;;;;;5028083;28;20021;-46
2021/05/13 12:08:22;;;;;;;7.28;3.65;;;16.90;99.90;;;;;;5026105;28;20083;-46
2021/05/13 12:10:49;;;;;;;6.45;3.90;;;17.00;99.90;;;;;;5026977;28;20022;-47
2021/05/13 12:13:15;;;;;;;6.82;3.60;;;16.90;99.90;;;;;;5028710;28;20073;-46
2021/05/13 12:15:41;;;;;;;5.13;3.20;;;16.90;99.90;;;;;;5029358;28;20964;-45
2021/05/13 12:18:08;;;;;;;6.32;3.08;;;16.90;99.90;;;;;;5028496;28;20049;-46
2021/05/13 12:20:41;;;;;;;7.78;3.72;;;16.90;99.90;;;;;;5028906;28;20087;-45
2021/05/13 12:23:06;;;;;;;8.80;4.10;;;16.90;99.90;;;;;;5027561;28;20491;-46
2021/05/13 12:25:35;;;;;;;7.22;3.55;;;16.80;99.90;;;;;;5029422;28;20053;-47
2021/05/13 12:28:00;;;;;;;11.20;4.03;;;16.70;99.90;;;;;;5028131;28;20025;-44
2021/05/13 12:30:27;;;;;;;7.68;3.95;;;16.70;99.90;;;;;;5029600;28;20408;-44
2021/05/13 12:32:54;;;;;;;6.95;4.18;;;16.70;99.90;;;;;;5026966;28;20264;-45
2021/05/13 12:35:28;;;;;;;6.70;3.85;;;16.80;99.90;;;;;;5028485;28;20026;-45
2021/05/13 12:38:10;;;;;;;6.82;3.67;;;16.80;99.90;;;;;;5028408;28;20021;-45
2021/05/13 12:40:36;;;;;;;8.40;3.55;;;16.80;99.90;;;;;;5029558;28;20423;-45
2021/05/13 12:43:19;;;;;;;5.65;3.47;;;16.80;99.90;;;;;;5028669;28;20040;-46
2021/05/13 12:45:50;;;;;;;7.68;3.60;;;16.80;99.90;;;;;;5027850;28;20026;-44
2021/05/13 12:48:20;;;;;;;;;;;16.70;99.90;;;;;;5028121;28;20243;-45
2021/05/13 12:51:01;;;;;;;7.63;4.10;;;16.80;99.90;;;;;;5029168;28;19999;-46
2021/05/13 12:53:28;;;;;;;7.63;3.20;;;16.80;99.90;;;;;;5027361;28;20556;-45
2021/05/13 12:55:54;;;;;;;7.28;3.50;;;16.70;99.90;;;;;;5028068;28;20487;-44